sensor_id;sensor_type;location;lat;lon;timestamp;pressure;altitude;pressure_sealevel;temperature;humidity
77171;BME280;66144;50.020;14.422;2023-06-22T00:01:15;99141.66;;;21.66;76.04
77171;BME280;66144;50.020;14.422;2023-06-22T00:03:40;99134.47;;;21.66;75.95
77171;BME280;66144;50.020;14.422;2023-06-22T00:06:06;99143.22;;;21.67;75.70
77171;BME280;66144;50.020;14.422;2023-06-22T00:08:31;99145.41;;;21.65;76.13
77171;BME280;66144;50.020;14.422;2023-06-22T00:10:57;99150.56;;;21.61;75.89
77171;BME280;66144;50.020;14.422;2023-06-22T00:13:22;99150.06;;;21.59;76.07
77171;BME280;66144;50.020;14.422;2023-06-22T00:15:47;99141.94;;;21.56;76.16
77171;BME280;66144;50.020;14.422;2023-06-22T00:18:13;99139.59;;;21.54;75.39
77171;BME280;66144;50.020;14.422;2023-06-22T00:20:38;99147.88;;;21.53;75.63
77171;BME280;66144;50.020;14.422;2023-06-22T00:23:05;99144.75;;;21.51;76.07
77171;BME280;66144;50.020;14.422;2023-06-22T00:25:38;99146.31;;;21.52;76.05
77171;BME280;66144;50.020;14.422;2023-06-22T00:28:05;99148.03;;;21.48;76.18
77171;BME280;66144;50.020;14.422;2023-06-22T00:30:31;99143.31;;;21.45;76.65
77171;BME280;66144;50.020;14.422;2023-06-22T00:32:57;99142.53;;;21.44;76.16
77171;BME280;66144;50.020;14.422;2023-06-22T00:35:23;99142.06;;;21.42;76.10
77171;BME280;66144;50.020;14.422;2023-06-22T00:37:54;99143.44;;;21.40;76.53
77171;BME280;66144;50.020;14.422;2023-06-22T00:40:25;99138.28;;;21.34;76.29
77171;BME280;66144;50.020;14.422;2023-06-22T00:42:50;99135.63;;;21.34;76.60
77171;BME280;66144;50.020;14.422;2023-06-22T00:45:16;99128.88;;;21.28;75.65
77171;BME280;66144;50.020;14.422;2023-06-22T00:47:41;99135.09;;;21.24;76.31
77171;BME280;66144;50.020;14.422;2023-06-22T00:50:08;99137.06;;;21.18;76.42
77171;BME280;66144;50.020;14.422;2023-06-22T00:52:35;99133.97;;;21.16;76.23
77171;BME280;66144;50.020;14.422;2023-06-22T00:55:02;99128.66;;;21.16;76.33
77171;BME280;66144;50.020;14.422;2023-06-22T00:57:28;99117.84;;;21.13;75.67
77171;BME280;66144;50.020;14.422;2023-06-22T00:59:54;99117.50;;;21.06;76.69
77171;BME280;66144;50.020;14.422;2023-06-22T01:02:20;99113.56;;;21.03;76.56
77171;BME280;66144;50.020;14.422;2023-06-22T01:04:45;99117.63;;;21.00;76.34
77171;BME280;66144;50.020;14.422;2023-06-22T01:09:45;99110.25;;;20.89;76.55
77171;BME280;66144;50.020;14.422;2023-06-22T01:12:12;99107.59;;;20.89;75.83
77171;BME280;66144;50.020;14.422;2023-06-22T01:14:55;99105.06;;;20.84;76.50
77171;BME280;66144;50.020;14.422;2023-06-22T01:17:23;99108.78;;;20.83;75.81
77171;BME280;66144;50.020;14.422;2023-06-22T01:19:51;99101.91;;;20.82;76.20
77171;BME280;66144;50.020;14.422;2023-06-22T01:22:29;99107.22;;;20.82;75.90
77171;BME280;66144;50.020;14.422;2023-06-22T01:30:41;99106.03;;;20.65;75.61
77171;BME280;66144;50.020;14.422;2023-06-22T01:33:10;99095.72;;;20.64;75.72
77171;BME280;66144;50.020;14.422;2023-06-22T01:35:38;99097.59;;;20.63;75.93
77171;BME280;66144;50.020;14.422;2023-06-22T01:38:04;99102.09;;;20.54;76.23
77171;BME280;66144;50.020;14.422;2023-06-22T01:40:32;99104.66;;;20.46;76.08
77171;BME280;66144;50.020;14.422;2023-06-22T01:43:00;99104.50;;;20.42;76.17
77171;BME280;66144;50.020;14.422;2023-06-22T01:45:27;99104.97;;;20.44;76.14
77171;BME280;66144;50.020;14.422;2023-06-22T01:47:53;99101.06;;;20.42;76.00
77171;BME280;66144;50.020;14.422;2023-06-22T01:50:19;99114.63;;;20.40;75.76
77171;BME280;66144;50.020;14.422;2023-06-22T01:52:45;99116.31;;;20.36;76.21
77171;BME280;66144;50.020;14.422;2023-06-22T01:55:10;99110.13;;;20.27;76.40
77171;BME280;66144;50.020;14.422;2023-06-22T01:57:36;99128.50;;;20.23;76.47
77171;BME280;66144;50.020;14.422;2023-06-22T02:00:04;99126.03;;;20.27;76.05
77171;BME280;66144;50.020;14.422;2023-06-22T02:02:40;99126.94;;;20.22;76.13
77171;BME280;66144;50.020;14.422;2023-06-22T02:05:09;99131.47;;;20.22;75.90
77171;BME280;66144;50.020;14.422;2023-06-22T02:07:44;99134.91;;;20.22;76.54
77171;BME280;66144;50.020;14.422;2023-06-22T02:10:14;99138.97;;;20.20;76.23
77171;BME280;66144;50.020;14.422;2023-06-22T02:12:42;99132.88;;;20.19;76.32
77171;BME280;66144;50.020;14.422;2023-06-22T02:15:09;99129.72;;;20.17;76.11
77171;BME280;66144;50.020;14.422;2023-06-22T02:17:35;99134.75;;;20.19;76.88
77171;BME280;66144;50.020;14.422;2023-06-22T02:20:04;99130.63;;;20.13;77.45
77171;BME280;66144;50.020;14.422;2023-06-22T02:22:32;99135.81;;;20.18;77.04
77171;BME280;66144;50.020;14.422;2023-06-22T02:24:58;99138.78;;;20.16;78.20
77171;BME280;66144;50.020;14.422;2023-06-22T02:27:23;99148.00;;;20.19;77.62
77171;BME280;66144;50.020;14.422;2023-06-22T02:29:49;99140.84;;;20.19;79.19
77171;BME280;66144;50.020;14.422;2023-06-22T02:32:14;99125.22;;;20.18;79.25
77171;BME280;66144;50.020;14.422;2023-06-22T02:34:43;99134.75;;;20.19;78.72
77171;BME280;66144;50.020;14.422;2023-06-22T02:37:13;99141.28;;;20.21;78.69
77171;BME280;66144;50.020;14.422;2023-06-22T02:39:39;99133.03;;;20.23;78.17
77171;BME280;66144;50.020;14.422;2023-06-22T02:42:05;99133.81;;;20.23;77.83
77171;BME280;66144;50.020;14.422;2023-06-22T02:44:31;99129.28;;;20.24;78.30
77171;BME280;66144;50.020;14.422;2023-06-22T02:46:56;99129.88;;;20.21;78.07
77171;BME280;66144;50.020;14.422;2023-06-22T02:49:22;99132.38;;;20.17;78.70
77171;BME280;66144;50.020;14.422;2023-06-22T02:51:48;99131.78;;;20.20;78.62
77171;BME280;66144;50.020;14.422;2023-06-22T02:54:13;99124.59;;;20.21;78.30
77171;BME280;66144;50.020;14.422;2023-06-22T02:56:39;99125.50;;;20.16;78.37
77171;BME280;66144;50.020;14.422;2023-06-22T02:59:06;99122.00;;;20.07;78.13
77171;BME280;66144;50.020;14.422;2023-06-22T03:01:31;99124.63;;;20.07;78.22
77171;BME280;66144;50.020;14.422;2023-06-22T03:04:03;99119.34;;;20.07;77.84
77171;BME280;66144;50.020;14.422;2023-06-22T03:06:29;99119.63;;;20.06;77.63
77171;BME280;66144;50.020;14.422;2023-06-22T03:09:03;99119.94;;;20.04;77.85
77171;BME280;66144;50.020;14.422;2023-06-22T03:11:29;99127.09;;;20.04;77.59
77171;BME280;66144;50.020;14.422;2023-06-22T03:13:56;99126.00;;;20.05;77.86
77171;BME280;66144;50.020;14.422;2023-06-22T03:16:21;99123.06;;;20.06;77.94
77171;BME280;66144;50.020;14.422;2023-06-22T03:18:46;99128.06;;;20.08;77.61
77171;BME280;66144;50.020;14.422;2023-06-22T03:21:12;99135.25;;;20.07;77.33
77171;BME280;66144;50.020;14.422;2023-06-22T03:23:37;99142.91;;;20.09;77.78
77171;BME280;66144;50.020;14.422;2023-06-22T03:26:03;99133.88;;;20.10;77.83
77171;BME280;66144;50.020;14.422;2023-06-22T03:28:29;99134.34;;;20.12;77.76
77171;BME280;66144;50.020;14.422;2023-06-22T03:30:56;99133.09;;;20.09;77.35
77171;BME280;66144;50.020;14.422;2023-06-22T03:33:22;99145.56;;;20.09;77.67
77171;BME280;66144;50.020;14.422;2023-06-22T03:35:47;99138.09;;;20.11;77.26
77171;BME280;66144;50.020;14.422;2023-06-22T03:38:13;99134.66;;;20.10;77.52
77171;BME280;66144;50.020;14.422;2023-06-22T03:40:38;99141.72;;;20.15;77.71
77171;BME280;66144;50.020;14.422;2023-06-22T03:43:03;99143.88;;;20.13;78.02
77171;BME280;66144;50.020;14.422;2023-06-22T03:45:29;99148.78;;;20.19;77.19
77171;BME280;66144;50.020;14.422;2023-06-22T03:47:54;99141.91;;;20.18;77.59
77171;BME280;66144;50.020;14.422;2023-06-22T03:50:19;99135.03;;;20.17;77.55
77171;BME280;66144;50.020;14.422;2023-06-22T03:52:48;99139.41;;;20.22;77.29
77171;BME280;66144;50.020;14.422;2023-06-22T03:55:13;99136.91;;;20.17;77.32
77171;BME280;66144;50.020;14.422;2023-06-22T03:57:38;99134.31;;;20.25;77.32
77171;BME280;66144;50.020;14.422;2023-06-22T04:00:04;99124.38;;;20.31;77.22
77171;BME280;66144;50.020;14.422;2023-06-22T04:02:36;99114.47;;;20.37;77.51
77171;BME280;66144;50.020;14.422;2023-06-22T04:05:01;99106.28;;;20.33;77.37
77171;BME280;66144;50.020;14.422;2023-06-22T04:07:26;99103.03;;;20.36;77.31
77171;BME280;66144;50.020;14.422;2023-06-22T04:09:52;99097.16;;;20.39;77.34
77171;BME280;66144;50.020;14.422;2023-06-22T04:12:17;99109.97;;;20.46;77.03
77171;BME280;66144;50.020;14.422;2023-06-22T04:14:42;99113.91;;;20.48;77.58
77171;BME280;66144;50.020;14.422;2023-06-22T04:17:08;99113.31;;;20.51;77.64
77171;BME280;66144;50.020;14.422;2023-06-22T04:19:33;99109.44;;;20.57;77.47
77171;BME280;66144;50.020;14.422;2023-06-22T04:21:59;99105.09;;;20.61;76.85
77171;BME280;66144;50.020;14.422;2023-06-22T04:24:24;99107.72;;;20.61;77.11
77171;BME280;66144;50.020;14.422;2023-06-22T04:26:49;99112.44;;;20.64;76.75
77171;BME280;66144;50.020;14.422;2023-06-22T04:29:20;99114.97;;;20.69;77.06
77171;BME280;66144;50.020;14.422;2023-06-22T04:31:45;99120.47;;;20.73;76.59
77171;BME280;66144;50.020;14.422;2023-06-22T04:34:13;99111.41;;;20.74;77.25
77171;BME280;66144;50.020;14.422;2023-06-22T04:36:41;99115.19;;;20.82;76.42
77171;BME280;66144;50.020;14.422;2023-06-22T04:39:10;99114.28;;;20.86;76.28
77171;BME280;66144;50.020;14.422;2023-06-22T04:41:40;99111.19;;;20.93;76.23
77171;BME280;66144;50.020;14.422;2023-06-22T04:44:16;99129.34;;;20.99;76.15
77171;BME280;66144;50.020;14.422;2023-06-22T04:46:51;99127.63;;;20.95;75.90
77171;BME280;66144;50.020;14.422;2023-06-22T04:49:25;99127.03;;;21.07;75.38
77171;BME280;66144;50.020;14.422;2023-06-22T04:52:08;99123.16;;;21.13;75.24
77171;BME280;66144;50.020;14.422;2023-06-22T04:54:35;99127.75;;;21.21;75.70
77171;BME280;66144;50.020;14.422;2023-06-22T04:57:05;99132.50;;;21.32;75.06
77171;BME280;66144;50.020;14.422;2023-06-22T04:59:35;99126.41;;;21.41;74.48
77171;BME280;66144;50.020;14.422;2023-06-22T05:02:01;99140.38;;;21.55;74.63
77171;BME280;66144;50.020;14.422;2023-06-22T05:04:27;99142.13;;;21.77;73.75
77171;BME280;66144;50.020;14.422;2023-06-22T05:06:57;99147.06;;;22.44;71.63
77171;BME280;66144;50.020;14.422;2023-06-22T05:09:23;99140.31;;;23.27;68.02
77171;BME280;66144;50.020;14.422;2023-06-22T05:11:50;99150.06;;;23.61;66.92
77171;BME280;66144;50.020;14.422;2023-06-22T05:14:16;99152.56;;;24.08;66.03
77171;BME280;66144;50.020;14.422;2023-06-22T05:16:42;99152.53;;;23.87;65.99
77171;BME280;66144;50.020;14.422;2023-06-22T05:19:08;99157.88;;;23.66;66.55
77171;BME280;66144;50.020;14.422;2023-06-22T05:21:34;99159.88;;;23.99;66.04
77171;BME280;66144;50.020;14.422;2023-06-22T05:23:59;99153.19;;;24.67;63.23
77171;BME280;66144;50.020;14.422;2023-06-22T05:26:28;99156.19;;;25.11;61.96
77171;BME280;66144;50.020;14.422;2023-06-22T05:28:54;99147.78;;;25.70;60.20
77171;BME280;66144;50.020;14.422;2023-06-22T05:31:19;99157.31;;;25.95;59.24
77171;BME280;66144;50.020;14.422;2023-06-22T05:33:46;99163.66;;;26.43;58.26
77171;BME280;66144;50.020;14.422;2023-06-22T05:36:12;99162.91;;;26.86;57.00
77171;BME280;66144;50.020;14.422;2023-06-22T05:38:41;99161.22;;;27.09;56.26
77171;BME280;66144;50.020;14.422;2023-06-22T05:41:07;99168.75;;;27.35;55.30
77171;BME280;66144;50.020;14.422;2023-06-22T05:43:32;99174.91;;;27.51;54.67
77171;BME280;66144;50.020;14.422;2023-06-22T05:46:00;99184.31;;;27.14;55.79
77171;BME280;66144;50.020;14.422;2023-06-22T05:48:26;99185.28;;;27.22;55.80
77171;BME280;66144;50.020;14.422;2023-06-22T05:50:51;99190.19;;;27.04;55.67
77171;BME280;66144;50.020;14.422;2023-06-22T05:53:16;99189.66;;;26.98;55.81
77171;BME280;66144;50.020;14.422;2023-06-22T05:55:42;99191.16;;;26.68;57.30
77171;BME280;66144;50.020;14.422;2023-06-22T05:58:08;99191.97;;;26.56;57.36
77171;BME280;66144;50.020;14.422;2023-06-22T06:00:34;99187.94;;;26.34;58.02
77171;BME280;66144;50.020;14.422;2023-06-22T06:03:00;99173.91;;;26.53;57.36
77171;BME280;66144;50.020;14.422;2023-06-22T06:05:31;99173.03;;;26.93;56.80
77171;BME280;66144;50.020;14.422;2023-06-22T06:07:58;99184.00;;;27.31;55.51
77171;BME280;66144;50.020;14.422;2023-06-22T06:10:23;99183.28;;;27.66;54.27
77171;BME280;66144;50.020;14.422;2023-06-22T06:12:48;99186.53;;;28.10;53.35
77171;BME280;66144;50.020;14.422;2023-06-22T06:15:14;99187.78;;;28.70;52.28
77171;BME280;66144;50.020;14.422;2023-06-22T06:17:47;99189.75;;;29.38;50.27
77171;BME280;66144;50.020;14.422;2023-06-22T06:20:12;99181.28;;;29.89;49.35
77171;BME280;66144;50.020;14.422;2023-06-22T06:22:38;99176.06;;;30.30;48.03
77171;BME280;66144;50.020;14.422;2023-06-22T06:25:05;99187.31;;;30.69;47.01
77171;BME280;66144;50.020;14.422;2023-06-22T06:27:30;99189.44;;;30.89;47.09
77171;BME280;66144;50.020;14.422;2023-06-22T06:29:56;99185.47;;;30.80;46.00
77171;BME280;66144;50.020;14.422;2023-06-22T06:32:21;99181.06;;;30.31;47.15
77171;BME280;66144;50.020;14.422;2023-06-22T06:34:47;99175.38;;;30.70;47.16
77171;BME280;66144;50.020;14.422;2023-06-22T06:37:12;99166.38;;;30.96;46.56
77171;BME280;66144;50.020;14.422;2023-06-22T06:39:38;99168.88;;;31.15;45.49
77171;BME280;66144;50.020;14.422;2023-06-22T06:42:04;99169.19;;;31.10;45.83
77171;BME280;66144;50.020;14.422;2023-06-22T06:44:30;99169.56;;;30.68;46.57
77171;BME280;66144;50.020;14.422;2023-06-22T06:46:55;99165.56;;;31.36;45.34
77171;BME280;66144;50.020;14.422;2023-06-22T06:49:21;99170.06;;;31.69;45.12
77171;BME280;66144;50.020;14.422;2023-06-22T06:51:46;99165.94;;;31.89;45.70
77171;BME280;66144;50.020;14.422;2023-06-22T06:54:11;99156.69;;;31.97;45.05
77171;BME280;66144;50.020;14.422;2023-06-22T06:56:37;99159.06;;;32.16;44.18
77171;BME280;66144;50.020;14.422;2023-06-22T06:59:02;99154.59;;;32.59;44.34
77171;BME280;66144;50.020;14.422;2023-06-22T07:01:27;99155.81;;;32.80;43.25
77171;BME280;66144;50.020;14.422;2023-06-22T07:03:59;99155.78;;;32.62;44.39
77171;BME280;66144;50.020;14.422;2023-06-22T07:06:26;99151.97;;;33.06;43.46
77171;BME280;66144;50.020;14.422;2023-06-22T07:08:55;99143.47;;;33.32;42.29
77171;BME280;66144;50.020;14.422;2023-06-22T07:11:20;99145.78;;;33.16;41.50
77171;BME280;66144;50.020;14.422;2023-06-22T07:13:45;99141.91;;;33.45;41.62
77171;BME280;66144;50.020;14.422;2023-06-22T07:16:11;99142.66;;;33.56;41.29
77171;BME280;66144;50.020;14.422;2023-06-22T07:18:36;99143.06;;;33.51;41.55
77171;BME280;66144;50.020;14.422;2023-06-22T07:21:01;99141.47;;;33.79;40.64
77171;BME280;66144;50.020;14.422;2023-06-22T07:23:28;99138.31;;;33.94;40.89
77171;BME280;66144;50.020;14.422;2023-06-22T07:25:54;99128.75;;;34.49;40.00
77171;BME280;66144;50.020;14.422;2023-06-22T07:28:19;99122.41;;;34.73;39.22
77171;BME280;66144;50.020;14.422;2023-06-22T07:30:46;99119.84;;;35.04;38.80
77171;BME280;66144;50.020;14.422;2023-06-22T07:33:11;99110.56;;;35.42;38.45
77171;BME280;66144;50.020;14.422;2023-06-22T07:35:36;99114.78;;;35.06;37.32
77171;BME280;66144;50.020;14.422;2023-06-22T07:38:02;99118.78;;;34.94;37.86
77171;BME280;66144;50.020;14.422;2023-06-22T07:40:28;99116.34;;;35.48;37.50
77171;BME280;66144;50.020;14.422;2023-06-22T07:42:54;99112.72;;;34.72;39.21
77171;BME280;66144;50.020;14.422;2023-06-22T07:45:20;99108.25;;;35.00;38.44
77171;BME280;66144;50.020;14.422;2023-06-22T07:47:45;99105.50;;;35.44;38.09
77171;BME280;66144;50.020;14.422;2023-06-22T07:50:11;99110.78;;;35.21;37.53
77171;BME280;66144;50.020;14.422;2023-06-22T07:52:36;99109.94;;;35.27;37.80
77171;BME280;66144;50.020;14.422;2023-06-22T07:55:02;99098.78;;;35.56;38.00
77171;BME280;66144;50.020;14.422;2023-06-22T07:57:28;99094.09;;;35.60;37.08
77171;BME280;66144;50.020;14.422;2023-06-22T08:00:02;99095.38;;;35.82;37.77
77171;BME280;66144;50.020;14.422;2023-06-22T08:02:31;99087.19;;;35.11;38.53
77171;BME280;66144;50.020;14.422;2023-06-22T08:04:56;99093.06;;;35.06;38.34
77171;BME280;66144;50.020;14.422;2023-06-22T08:07:22;99087.78;;;35.66;38.09
77171;BME280;66144;50.020;14.422;2023-06-22T08:09:47;99085.50;;;35.27;38.34
77171;BME280;66144;50.020;14.422;2023-06-22T08:12:14;99082.47;;;35.18;38.41
77171;BME280;66144;50.020;14.422;2023-06-22T08:14:41;99086.13;;;35.42;38.14
77171;BME280;66144;50.020;14.422;2023-06-22T08:17:07;99081.03;;;35.44;38.13
77171;BME280;66144;50.020;14.422;2023-06-22T08:19:32;99074.81;;;35.81;37.08
77171;BME280;66144;50.020;14.422;2023-06-22T08:21:58;99079.06;;;35.82;39.01
77171;BME280;66144;50.020;14.422;2023-06-22T08:24:23;99069.44;;;35.78;37.47
77171;BME280;66144;50.020;14.422;2023-06-22T08:26:51;99063.72;;;35.65;37.57
77171;BME280;66144;50.020;14.422;2023-06-22T08:29:17;99058.25;;;36.29;37.27
77171;BME280;66144;50.020;14.422;2023-06-22T08:31:42;99054.72;;;36.02;36.88
77171;BME280;66144;50.020;14.422;2023-06-22T08:34:07;99055.81;;;36.08;36.99
77171;BME280;66144;50.020;14.422;2023-06-22T08:36:33;99062.34;;;35.84;37.40
77171;BME280;66144;50.020;14.422;2023-06-22T08:39:06;99058.53;;;36.08;36.85
77171;BME280;66144;50.020;14.422;2023-06-22T08:41:32;99049.28;;;36.56;36.39
77171;BME280;66144;50.020;14.422;2023-06-22T08:43:57;99050.59;;;36.71;36.18
77171;BME280;66144;50.020;14.422;2023-06-22T08:46:22;99050.38;;;36.85;36.15
77171;BME280;66144;50.020;14.422;2023-06-22T08:48:55;99048.22;;;36.96;35.96
77171;BME280;66144;50.020;14.422;2023-06-22T08:51:21;99058.16;;;37.30;35.80
77171;BME280;66144;50.020;14.422;2023-06-22T08:53:47;99046.06;;;37.51;34.76
77171;BME280;66144;50.020;14.422;2023-06-22T08:56:12;99044.31;;;37.96;33.90
77171;BME280;66144;50.020;14.422;2023-06-22T08:58:37;99044.56;;;38.22;32.62
77171;BME280;66144;50.020;14.422;2023-06-22T09:01:03;99040.03;;;38.31;32.66
77171;BME280;66144;50.020;14.422;2023-06-22T09:03:29;99041.59;;;38.49;33.25
77171;BME280;66144;50.020;14.422;2023-06-22T09:05:54;99036.53;;;38.31;31.69
77171;BME280;66144;50.020;14.422;2023-06-22T09:08:20;99031.69;;;38.39;33.34
77171;BME280;66144;50.020;14.422;2023-06-22T09:10:46;99031.66;;;38.71;33.38
77171;BME280;66144;50.020;14.422;2023-06-22T09:13:11;99033.50;;;38.29;32.74
77171;BME280;66144;50.020;14.422;2023-06-22T09:15:36;99029.25;;;37.13;33.98
77171;BME280;66144;50.020;14.422;2023-06-22T09:18:02;99035.00;;;37.38;33.38
77171;BME280;66144;50.020;14.422;2023-06-22T09:20:27;99024.38;;;37.24;33.24
77171;BME280;66144;50.020;14.422;2023-06-22T09:22:53;99021.19;;;37.49;33.02
77171;BME280;66144;50.020;14.422;2023-06-22T09:25:18;99018.66;;;37.94;32.65
77171;BME280;66144;50.020;14.422;2023-06-22T09:27:46;99016.66;;;38.30;31.72
77171;BME280;66144;50.020;14.422;2023-06-22T09:30:11;99025.00;;;38.07;31.38
77171;BME280;66144;50.020;14.422;2023-06-22T09:32:37;99025.84;;;38.04;31.41
77171;BME280;66144;50.020;14.422;2023-06-22T09:35:04;99014.44;;;38.09;31.67
77171;BME280;66144;50.020;14.422;2023-06-22T09:37:33;99005.41;;;38.45;31.57
77171;BME280;66144;50.020;14.422;2023-06-22T09:39:59;99012.44;;;37.93;32.57
77171;BME280;66144;50.020;14.422;2023-06-22T09:42:25;99005.16;;;37.71;32.49
77171;BME280;66144;50.020;14.422;2023-06-22T09:44:50;99015.00;;;38.00;32.03
77171;BME280;66144;50.020;14.422;2023-06-22T09:47:15;99014.25;;;37.44;32.99
77171;BME280;66144;50.020;14.422;2023-06-22T09:49:41;99013.41;;;37.47;32.92
77171;BME280;66144;50.020;14.422;2023-06-22T09:52:06;99011.59;;;37.41;32.90
77171;BME280;66144;50.020;14.422;2023-06-22T09:54:32;99011.94;;;37.43;34.07
77171;BME280;66144;50.020;14.422;2023-06-22T09:56:57;98999.06;;;36.37;33.80
77171;BME280;66144;50.020;14.422;2023-06-22T09:59:23;98994.38;;;36.11;34.52
77171;BME280;66144;50.020;14.422;2023-06-22T10:01:48;98992.88;;;36.33;35.29
77171;BME280;66144;50.020;14.422;2023-06-22T10:04:13;99002.91;;;36.13;35.67
77171;BME280;66144;50.020;14.422;2023-06-22T10:06:39;98995.63;;;35.45;35.77
77171;BME280;66144;50.020;14.422;2023-06-22T10:09:06;98996.09;;;35.03;37.00
77171;BME280;66144;50.020;14.422;2023-06-22T10:11:32;98990.56;;;34.72;37.27
77171;BME280;66144;50.020;14.422;2023-06-22T10:14:00;98992.72;;;34.91;38.08
77171;BME280;66144;50.020;14.422;2023-06-22T10:16:30;98984.91;;;33.97;38.32
77171;BME280;66144;50.020;14.422;2023-06-22T10:18:56;98984.00;;;34.21;38.42
77171;BME280;66144;50.020;14.422;2023-06-22T10:21:22;98987.53;;;34.11;38.25
77171;BME280;66144;50.020;14.422;2023-06-22T10:23:47;98997.59;;;34.11;37.76
77171;BME280;66144;50.020;14.422;2023-06-22T10:26:12;98991.31;;;33.58;38.46
77171;BME280;66144;50.020;14.422;2023-06-22T10:28:38;98985.75;;;33.87;38.54
77171;BME280;66144;50.020;14.422;2023-06-22T10:31:03;98983.91;;;33.66;39.05
77171;BME280;66144;50.020;14.422;2023-06-22T10:33:28;98982.34;;;33.69;38.63
77171;BME280;66144;50.020;14.422;2023-06-22T10:35:55;98985.19;;;33.47;39.01
77171;BME280;66144;50.020;14.422;2023-06-22T10:38:20;98983.19;;;33.51;40.37
77171;BME280;66144;50.020;14.422;2023-06-22T10:40:46;98979.00;;;33.43;39.54
77171;BME280;66144;50.020;14.422;2023-06-22T10:43:11;98976.97;;;33.61;39.17
77171;BME280;66144;50.020;14.422;2023-06-22T10:45:36;98974.25;;;33.65;40.24
77171;BME280;66144;50.020;14.422;2023-06-22T10:48:02;98972.81;;;33.36;39.80
77171;BME280;66144;50.020;14.422;2023-06-22T10:50:27;98971.56;;;33.58;39.38
77171;BME280;66144;50.020;14.422;2023-06-22T10:52:54;98968.38;;;33.74;39.40
77171;BME280;66144;50.020;14.422;2023-06-22T10:55:19;98954.06;;;33.70;41.55
77171;BME280;66144;50.020;14.422;2023-06-22T10:57:45;98967.59;;;33.80;40.13
77171;BME280;66144;50.020;14.422;2023-06-22T11:00:12;98970.81;;;33.50;40.21
77171;BME280;66144;50.020;14.422;2023-06-22T11:02:38;98955.72;;;33.53;41.16
77171;BME280;66144;50.020;14.422;2023-06-22T11:05:04;98961.50;;;33.58;41.18
77171;BME280;66144;50.020;14.422;2023-06-22T11:07:29;98953.13;;;33.17;41.87
77171;BME280;66144;50.020;14.422;2023-06-22T11:09:55;98950.44;;;33.17;40.82
77171;BME280;66144;50.020;14.422;2023-06-22T11:12:20;98958.56;;;33.14;40.83
77171;BME280;66144;50.020;14.422;2023-06-22T11:14:46;98952.81;;;33.05;41.95
77171;BME280;66144;50.020;14.422;2023-06-22T11:17:11;98937.66;;;33.18;41.48
77171;BME280;66144;50.020;14.422;2023-06-22T11:19:36;98950.03;;;33.22;40.34
77171;BME280;66144;50.020;14.422;2023-06-22T11:22:02;98948.88;;;33.23;40.62
77171;BME280;66144;50.020;14.422;2023-06-22T11:24:27;98936.88;;;33.24;42.04
77171;BME280;66144;50.020;14.422;2023-06-22T11:26:53;98935.25;;;33.45;41.07
77171;BME280;66144;50.020;14.422;2023-06-22T11:29:18;98935.97;;;33.52;39.66
77171;BME280;66144;50.020;14.422;2023-06-22T11:31:43;98936.81;;;33.46;40.69
77171;BME280;66144;50.020;14.422;2023-06-22T11:34:09;98932.97;;;33.40;40.92
77171;BME280;66144;50.020;14.422;2023-06-22T11:36:34;98927.22;;;33.27;38.69
77171;BME280;66144;50.020;14.422;2023-06-22T11:39:01;98917.50;;;33.33;39.58
77171;BME280;66144;50.020;14.422;2023-06-22T11:41:26;98910.25;;;33.02;38.37
77171;BME280;66144;50.020;14.422;2023-06-22T11:43:51;98923.03;;;32.98;38.54
77171;BME280;66144;50.020;14.422;2023-06-22T11:46:17;98908.00;;;32.75;39.36
77171;BME280;66144;50.020;14.422;2023-06-22T11:48:42;98902.13;;;33.05;40.00
77171;BME280;66144;50.020;14.422;2023-06-22T11:51:08;98897.13;;;33.00;38.04
77171;BME280;66144;50.020;14.422;2023-06-22T11:53:34;98892.09;;;32.99;38.76
77171;BME280;66144;50.020;14.422;2023-06-22T11:56:00;98900.13;;;33.20;38.77
77171;BME280;66144;50.020;14.422;2023-06-22T11:58:26;98893.56;;;33.28;39.25
77171;BME280;66144;50.020;14.422;2023-06-22T12:00:51;98902.03;;;33.34;38.80
77171;BME280;66144;50.020;14.422;2023-06-22T12:03:17;98905.09;;;33.43;37.90
77171;BME280;66144;50.020;14.422;2023-06-22T12:05:43;98904.25;;;33.49;39.02
77171;BME280;66144;50.020;14.422;2023-06-22T12:08:08;98895.03;;;33.40;37.74
77171;BME280;66144;50.020;14.422;2023-06-22T12:10:34;98898.03;;;33.52;37.77
77171;BME280;66144;50.020;14.422;2023-06-22T12:12:59;98900.72;;;33.59;38.62
77171;BME280;66144;50.020;14.422;2023-06-22T12:15:25;98891.84;;;33.55;38.63
77171;BME280;66144;50.020;14.422;2023-06-22T12:17:52;98891.16;;;33.44;38.55
77171;BME280;66144;50.020;14.422;2023-06-22T12:20:18;98885.53;;;33.73;39.67
77171;BME280;66144;50.020;14.422;2023-06-22T12:22:44;98890.19;;;33.72;39.08
77171;BME280;66144;50.020;14.422;2023-06-22T12:25:10;98890.16;;;33.76;39.29
77171;BME280;66144;50.020;14.422;2023-06-22T12:27:36;98880.34;;;33.96;38.85
77171;BME280;66144;50.020;14.422;2023-06-22T12:30:02;98861.50;;;33.75;38.92
77171;BME280;66144;50.020;14.422;2023-06-22T12:32:28;98860.75;;;33.74;38.94
77171;BME280;66144;50.020;14.422;2023-06-22T12:34:53;98860.34;;;33.76;39.32
77171;BME280;66144;50.020;14.422;2023-06-22T12:37:18;98861.41;;;33.92;39.18
77171;BME280;66144;50.020;14.422;2023-06-22T12:39:44;98862.69;;;33.77;39.65
77171;BME280;66144;50.020;14.422;2023-06-22T12:42:10;98861.47;;;33.85;38.06
77171;BME280;66144;50.020;14.422;2023-06-22T12:44:38;98843.97;;;33.38;38.24
77171;BME280;66144;50.020;14.422;2023-06-22T12:47:03;98859.41;;;33.41;36.96
77171;BME280;66144;50.020;14.422;2023-06-22T12:49:29;98850.13;;;33.42;37.93
77171;BME280;66144;50.020;14.422;2023-06-22T12:51:54;98844.34;;;33.40;38.71
77171;BME280;66144;50.020;14.422;2023-06-22T12:54:20;98837.06;;;33.23;38.16